sensor_id;sensor_type;location;lat;lon;timestamp;pressure;altitude;pressure_sealevel;temperature;humidity
69980;BME280;57318;56.232;43.944;2023-08-06T00:00:18;99580.81;;;22.20;57.36
69980;BME280;57318;56.232;43.944;2023-08-06T00:02:43;99590.78;;;22.20;57.52
69980;BME280;57318;56.232;43.944;2023-08-06T00:05:09;99593.66;;;22.18;57.43
69980;BME280;57318;56.232;43.944;2023-08-06T00:07:35;99593.66;;;22.18;57.39
69980;BME280;57318;56.232;43.944;2023-08-06T00:10:00;99584.72;;;22.17;57.39
69980;BME280;57318;56.232;43.944;2023-08-06T00:12:29;99587.22;;;22.19;57.46
69980;BME280;57318;56.232;43.944;2023-08-06T00:14:55;99598.69;;;22.21;57.25
69980;BME280;57318;56.232;43.944;2023-08-06T00:17:21;99593.66;;;22.18;57.31
69980;BME280;57318;56.232;43.944;2023-08-06T00:19:46;99598.06;;;22.19;57.59
69980;BME280;57318;56.232;43.944;2023-08-06T00:22:12;99596.19;;;22.20;57.61
69980;BME280;57318;56.232;43.944;2023-08-06T00:24:38;99597.03;;;22.20;57.81
69980;BME280;57318;56.232;43.944;2023-08-06T00:27:03;99594.53;;;22.19;57.85
69980;BME280;57318;56.232;43.944;2023-08-06T00:29:29;99596.38;;;22.18;57.95
69980;BME280;57318;56.232;43.944;2023-08-06T00:31:55;99591.19;;;22.16;57.79
69980;BME280;57318;56.232;43.944;2023-08-06T00:34:21;99594.09;;;22.15;57.97
69980;BME280;57318;56.232;43.944;2023-08-06T00:36:46;99590.72;;;22.13;58.14
69980;BME280;57318;56.232;43.944;2023-08-06T00:39:12;99593.63;;;22.11;58.53
69980;BME280;57318;56.232;43.944;2023-08-06T00:41:38;99602.78;;;22.10;58.76
69980;BME280;57318;56.232;43.944;2023-08-06T00:44:04;99598.59;;;22.08;59.06
69980;BME280;57318;56.232;43.944;2023-08-06T00:46:31;99593.56;;;22.05;59.13
69980;BME280;57318;56.232;43.944;2023-08-06T00:48:57;99603.75;;;22.03;59.09
69980;BME280;57318;56.232;43.944;2023-08-06T00:51:29;99602.25;;;22.00;59.38
69980;BME280;57318;56.232;43.944;2023-08-06T00:53:55;99611.78;;;21.96;59.72
69980;BME280;57318;56.232;43.944;2023-08-06T00:56:21;99607.63;;;21.93;59.97
69980;BME280;57318;56.232;43.944;2023-08-06T00:58:47;99606.31;;;21.89;59.96
69980;BME280;57318;56.232;43.944;2023-08-06T01:01:13;99607.56;;;21.87;60.42
69980;BME280;57318;56.232;43.944;2023-08-06T01:03:38;99609.59;;;21.85;60.50
69980;BME280;57318;56.232;43.944;2023-08-06T01:06:05;99605.41;;;21.82;60.64
69980;BME280;57318;56.232;43.944;2023-08-06T01:08:58;99608.31;;;21.80;60.48
69980;BME280;57318;56.232;43.944;2023-08-06T01:11:47;99611.22;;;21.79;60.62
69980;BME280;57318;56.232;43.944;2023-08-06T01:14:26;99614.31;;;21.76;60.90
69980;BME280;57318;56.232;43.944;2023-08-06T01:16:54;99616.16;;;21.75;61.07
69980;BME280;57318;56.232;43.944;2023-08-06T01:19:21;99617.00;;;21.76;60.97
69980;BME280;57318;56.232;43.944;2023-08-06T01:21:47;99610.09;;;21.73;60.79
69980;BME280;57318;56.232;43.944;2023-08-06T01:24:13;99615.31;;;21.75;60.67
69980;BME280;57318;56.232;43.944;2023-08-06T01:26:44;99614.31;;;21.76;60.24
69980;BME280;57318;56.232;43.944;2023-08-06T01:31:56;99613.72;;;21.80;60.13
69980;BME280;57318;56.232;43.944;2023-08-06T01:34:31;99611.66;;;21.83;60.01
69980;BME280;57318;56.232;43.944;2023-08-06T01:36:59;99613.78;;;21.87;59.97
69980;BME280;57318;56.232;43.944;2023-08-06T01:39:25;99617.75;;;21.91;60.20
69980;BME280;57318;56.232;43.944;2023-08-06T01:41:51;99613.03;;;21.93;60.03
69980;BME280;57318;56.232;43.944;2023-08-06T01:44:17;99620.94;;;21.95;59.58
69980;BME280;57318;56.232;43.944;2023-08-06T01:46:43;99618.88;;;21.97;59.78
69980;BME280;57318;56.232;43.944;2023-08-06T01:49:08;99618.50;;;22.00;60.10
69980;BME280;57318;56.232;43.944;2023-08-06T01:51:34;99618.50;;;22.00;59.89
69980;BME280;57318;56.232;43.944;2023-08-06T01:54:00;99624.34;;;22.04;59.92
69980;BME280;57318;56.232;43.944;2023-08-06T01:56:26;99623.97;;;22.07;59.84
69980;BME280;57318;56.232;43.944;2023-08-06T01:58:51;99621.94;;;22.09;59.69
69980;BME280;57318;56.232;43.944;2023-08-06T02:01:17;99626.94;;;22.12;59.48
69980;BME280;57318;56.232;43.944;2023-08-06T02:03:43;99630.28;;;22.14;59.35
69980;BME280;57318;56.232;43.944;2023-08-06T02:06:08;99629.91;;;22.17;59.28
69980;BME280;57318;56.232;43.944;2023-08-06T02:08:34;99634.94;;;22.20;58.95
69980;BME280;57318;56.232;43.944;2023-08-06T02:11:00;99634.53;;;22.23;58.88
69980;BME280;57318;56.232;43.944;2023-08-06T02:13:27;99641.03;;;22.29;58.83
69980;BME280;57318;56.232;43.944;2023-08-06T02:15:53;99630.03;;;22.30;58.18
69980;BME280;57318;56.232;43.944;2023-08-06T02:18:18;99632.81;;;22.37;57.83
69980;BME280;57318;56.232;43.944;2023-08-06T02:20:55;99632.44;;;22.40;58.02
69980;BME280;57318;56.232;43.944;2023-08-06T02:23:21;99628.47;;;22.43;58.19
69980;BME280;57318;56.232;43.944;2023-08-06T02:25:47;99630.38;;;22.42;58.53
69980;BME280;57318;56.232;43.944;2023-08-06T02:28:15;99634.75;;;22.43;58.83
69980;BME280;57318;56.232;43.944;2023-08-06T02:30:49;99632.69;;;22.45;58.85
69980;BME280;57318;56.232;43.944;2023-08-06T02:33:15;99640.59;;;22.47;58.65
69980;BME280;57318;56.232;43.944;2023-08-06T02:35:41;99636.03;;;22.47;58.89
69980;BME280;57318;56.232;43.944;2023-08-06T02:38:06;99636.47;;;22.51;58.88
69980;BME280;57318;56.232;43.944;2023-08-06T02:40:32;99643.16;;;22.55;59.09
69980;BME280;57318;56.232;43.944;2023-08-06T02:42:58;99633.16;;;22.56;58.92
69980;BME280;57318;56.232;43.944;2023-08-06T02:45:23;99638.19;;;22.59;58.94
69980;BME280;57318;56.232;43.944;2023-08-06T02:47:49;99642.19;;;22.63;58.77
69980;BME280;57318;56.232;43.944;2023-08-06T02:50:15;99644.31;;;22.67;58.06
69980;BME280;57318;56.232;43.944;2023-08-06T02:52:40;99649.97;;;22.73;57.94
69980;BME280;57318;56.232;43.944;2023-08-06T02:55:06;99649.19;;;22.79;57.71
69980;BME280;57318;56.232;43.944;2023-08-06T02:57:32;99646.72;;;22.84;57.65
69980;BME280;57318;56.232;43.944;2023-08-06T02:59:58;99650.72;;;22.88;57.37
69980;BME280;57318;56.232;43.944;2023-08-06T03:02:24;99647.22;;;22.94;56.82
69980;BME280;57318;56.232;43.944;2023-08-06T03:04:49;99649.31;;;22.99;56.73
69980;BME280;57318;56.232;43.944;2023-08-06T03:07:15;99649.56;;;23.04;56.61
69980;BME280;57318;56.232;43.944;2023-08-06T03:09:40;99649.00;;;23.09;56.21
69980;BME280;57318;56.232;43.944;2023-08-06T03:12:06;99647.38;;;23.14;55.98
69980;BME280;57318;56.232;43.944;2023-08-06T03:14:32;99655.72;;;23.19;55.47
69980;BME280;57318;56.232;43.944;2023-08-06T03:16:58;99657.00;;;23.23;55.93
69980;BME280;57318;56.232;43.944;2023-08-06T03:19:24;99659.94;;;23.29;55.68
69980;BME280;57318;56.232;43.944;2023-08-06T03:21:49;99664.97;;;23.32;55.48
69980;BME280;57318;56.232;43.944;2023-08-06T03:24:15;99661.66;;;23.36;55.47
69980;BME280;57318;56.232;43.944;2023-08-06T03:26:40;99669.19;;;23.41;55.24
69980;BME280;57318;56.232;43.944;2023-08-06T03:29:06;99665.22;;;23.43;54.85
69980;BME280;57318;56.232;43.944;2023-08-06T03:31:32;99667.53;;;23.47;54.34
69980;BME280;57318;56.232;43.944;2023-08-06T03:33:58;99672.56;;;23.50;54.11
69980;BME280;57318;56.232;43.944;2023-08-06T03:36:23;99676.56;;;23.54;53.94
69980;BME280;57318;56.232;43.944;2023-08-06T03:38:49;99678.47;;;23.60;53.87
69980;BME280;57318;56.232;43.944;2023-08-06T03:41:15;99674.50;;;23.63;54.01
69980;BME280;57318;56.232;43.944;2023-08-06T03:43:40;99681.00;;;23.68;53.81
69980;BME280;57318;56.232;43.944;2023-08-06T03:46:06;99677.66;;;23.73;53.66
69980;BME280;57318;56.232;43.944;2023-08-06T03:48:34;99675.19;;;23.78;53.10
69980;BME280;57318;56.232;43.944;2023-08-06T03:51:00;99679.00;;;23.84;52.96
69980;BME280;57318;56.232;43.944;2023-08-06T03:53:27;99679.22;;;23.89;53.14
69980;BME280;57318;56.232;43.944;2023-08-06T03:55:53;99675.25;;;23.91;53.30
69980;BME280;57318;56.232;43.944;2023-08-06T03:58:18;99677.38;;;23.96;52.96
69980;BME280;57318;56.232;43.944;2023-08-06T04:00:44;99681.13;;;24.02;53.21
69980;BME280;57318;56.232;43.944;2023-08-06T04:03:10;99690.75;;;24.04;53.11
69980;BME280;57318;56.232;43.944;2023-08-06T04:05:35;99688.25;;;24.09;52.96
69980;BME280;57318;56.232;43.944;2023-08-06T04:08:01;99689.09;;;24.17;53.16
69980;BME280;57318;56.232;43.944;2023-08-06T04:10:27;99691.22;;;24.21;52.80
69980;BME280;57318;56.232;43.944;2023-08-06T04:12:52;99689.53;;;24.27;52.77
69980;BME280;57318;56.232;43.944;2023-08-06T04:15:18;99688.28;;;24.29;52.54
69980;BME280;57318;56.232;43.944;2023-08-06T04:17:44;99686.63;;;24.35;52.51
69980;BME280;57318;56.232;43.944;2023-08-06T04:20:10;99691.41;;;24.40;52.50
69980;BME280;57318;56.232;43.944;2023-08-06T04:22:35;99686.03;;;24.46;52.46
69980;BME280;57318;56.232;43.944;2023-08-06T04:25:01;99695.00;;;24.54;52.54
69980;BME280;57318;56.232;43.944;2023-08-06T04:27:27;99697.97;;;24.59;52.32
69980;BME280;57318;56.232;43.944;2023-08-06T04:29:53;99701.72;;;24.64;52.56
69980;BME280;57318;56.232;43.944;2023-08-06T04:32:19;99708.22;;;24.70;52.65
69980;BME280;57318;56.232;43.944;2023-08-06T04:34:45;99712.81;;;24.76;52.86
69980;BME280;57318;56.232;43.944;2023-08-06T04:37:10;99703.81;;;24.82;52.51
69980;BME280;57318;56.232;43.944;2023-08-06T04:39:36;99703.00;;;24.89;52.33
69980;BME280;57318;56.232;43.944;2023-08-06T04:42:02;99701.28;;;24.94;52.03
69980;BME280;57318;56.232;43.944;2023-08-06T04:44:28;99704.66;;;25.03;51.54
69980;BME280;57318;56.232;43.944;2023-08-06T04:46:54;99696.69;;;25.08;50.64
69980;BME280;57318;56.232;43.944;2023-08-06T04:49:24;99697.53;;;25.15;50.12
69980;BME280;57318;56.232;43.944;2023-08-06T04:51:51;99693.94;;;25.21;50.28
69980;BME280;57318;56.232;43.944;2023-08-06T04:54:16;99693.28;;;25.26;49.29
69980;BME280;57318;56.232;43.944;2023-08-06T04:56:42;99702.53;;;25.32;49.18
69980;BME280;57318;56.232;43.944;2023-08-06T04:59:08;99695.41;;;25.37;49.29
69980;BME280;57318;56.232;43.944;2023-08-06T05:01:34;99689.94;;;25.44;49.34
69980;BME280;57318;56.232;43.944;2023-08-06T05:03:59;99697.25;;;25.50;49.35
69980;BME280;57318;56.232;43.944;2023-08-06T05:06:25;99692.81;;;25.56;49.86
69980;BME280;57318;56.232;43.944;2023-08-06T05:08:51;99690.09;;;25.63;49.03
69980;BME280;57318;56.232;43.944;2023-08-06T05:11:16;99687.53;;;25.68;48.21
69980;BME280;57318;56.232;43.944;2023-08-06T05:13:42;99685.84;;;25.73;48.23
69980;BME280;57318;56.232;43.944;2023-08-06T05:16:08;99686.88;;;25.79;48.28
69980;BME280;57318;56.232;43.944;2023-08-06T05:18:33;99692.91;;;25.88;48.03
69980;BME280;57318;56.232;43.944;2023-08-06T05:21:00;99690.56;;;25.91;47.16
69980;BME280;57318;56.232;43.944;2023-08-06T05:23:26;99688.47;;;25.93;46.98
69980;BME280;57318;56.232;43.944;2023-08-06T05:25:52;99698.91;;;25.97;46.20
69980;BME280;57318;56.232;43.944;2023-08-06T05:28:18;99701.03;;;26.01;46.84
69980;BME280;57318;56.232;43.944;2023-08-06T05:30:44;99696.38;;;26.08;46.85
69980;BME280;57318;56.232;43.944;2023-08-06T05:33:09;99698.63;;;26.18;46.28
69980;BME280;57318;56.232;43.944;2023-08-06T05:35:35;99694.81;;;26.26;45.77
69980;BME280;57318;56.232;43.944;2023-08-06T05:38:01;99696.66;;;26.32;45.84
69980;BME280;57318;56.232;43.944;2023-08-06T05:40:26;99694.09;;;26.37;45.91
69980;BME280;57318;56.232;43.944;2023-08-06T05:42:54;99698.66;;;26.43;45.79
69980;BME280;57318;56.232;43.944;2023-08-06T05:45:20;99692.34;;;26.50;45.92
69980;BME280;57318;56.232;43.944;2023-08-06T05:47:48;99691.47;;;26.56;45.95
69980;BME280;57318;56.232;43.944;2023-08-06T05:50:14;99688.44;;;26.64;45.72
69980;BME280;57318;56.232;43.944;2023-08-06T05:52:39;99681.91;;;26.72;45.74
69980;BME280;57318;56.232;43.944;2023-08-06T05:55:05;99685.00;;;26.82;45.78
69980;BME280;57318;56.232;43.944;2023-08-06T05:57:31;99690.59;;;26.87;45.43
69980;BME280;57318;56.232;43.944;2023-08-06T05:59:57;99693.31;;;26.87;44.74
69980;BME280;57318;56.232;43.944;2023-08-06T06:02:22;99693.47;;;26.92;43.76
69980;BME280;57318;56.232;43.944;2023-08-06T06:04:48;99688.03;;;26.92;43.88
69980;BME280;57318;56.232;43.944;2023-08-06T06:07:14;99699.09;;;26.97;44.19
69980;BME280;57318;56.232;43.944;2023-08-06T06:09:40;99698.38;;;27.09;44.14
69980;BME280;57318;56.232;43.944;2023-08-06T06:12:06;99687.53;;;27.21;44.45
69980;BME280;57318;56.232;43.944;2023-08-06T06:14:32;99694.31;;;27.36;44.10
69980;BME280;57318;56.232;43.944;2023-08-06T06:16:59;99699.78;;;27.55;44.13
69980;BME280;57318;56.232;43.944;2023-08-06T06:19:25;99693.94;;;27.70;44.03
69980;BME280;57318;56.232;43.944;2023-08-06T06:21:51;99688.53;;;27.82;43.17
69980;BME280;57318;56.232;43.944;2023-08-06T06:24:17;99689.50;;;27.87;42.85
69980;BME280;57318;56.232;43.944;2023-08-06T06:26:43;99690.47;;;27.93;43.04
69980;BME280;57318;56.232;43.944;2023-08-06T06:29:08;99690.47;;;27.93;42.98
69980;BME280;57318;56.232;43.944;2023-08-06T06:31:34;99689.00;;;27.97;43.25
69980;BME280;57318;56.232;43.944;2023-08-06T06:34:00;99689.25;;;28.38;42.87
69980;BME280;57318;56.232;43.944;2023-08-06T06:36:26;99698.56;;;29.67;39.93
69980;BME280;57318;56.232;43.944;2023-08-06T06:38:51;99692.16;;;31.55;36.57
69980;BME280;57318;56.232;43.944;2023-08-06T06:41:17;99701.97;;;33.67;33.19
69980;BME280;57318;56.232;43.944;2023-08-06T06:43:43;99693.22;;;35.55;29.72
69980;BME280;57318;56.232;43.944;2023-08-06T06:46:09;99700.53;;;37.34;27.34
69980;BME280;57318;56.232;43.944;2023-08-06T06:48:34;99703.94;;;39.30;24.56
69980;BME280;57318;56.232;43.944;2023-08-06T06:51:00;99702.22;;;41.03;22.02
69980;BME280;57318;56.232;43.944;2023-08-06T06:53:26;99714.22;;;42.53;20.32
69980;BME280;57318;56.232;43.944;2023-08-06T06:55:56;99714.38;;;43.90;18.73
69980;BME280;57318;56.232;43.944;2023-08-06T06:58:26;99709.44;;;44.96;17.37
69980;BME280;57318;56.232;43.944;2023-08-06T07:00:52;99708.38;;;46.24;16.34
69980;BME280;57318;56.232;43.944;2023-08-06T07:03:19;99712.69;;;46.78;15.58
69980;BME280;57318;56.232;43.944;2023-08-06T07:05:45;99702.16;;;46.75;14.92
69980;BME280;57318;56.232;43.944;2023-08-06T07:08:10;99711.09;;;47.09;14.79
69980;BME280;57318;56.232;43.944;2023-08-06T07:10:37;99709.94;;;47.78;13.74
69980;BME280;57318;56.232;43.944;2023-08-06T07:13:03;99715.59;;;47.97;13.11
69980;BME280;57318;56.232;43.944;2023-08-06T07:15:29;99712.53;;;48.22;12.99
69980;BME280;57318;56.232;43.944;2023-08-06T07:17:55;99711.44;;;48.69;12.72
69980;BME280;57318;56.232;43.944;2023-08-06T07:20:20;99708.25;;;49.40;12.54
69980;BME280;57318;56.232;43.944;2023-08-06T07:22:46;99705.59;;;48.39;12.78
69980;BME280;57318;56.232;43.944;2023-08-06T07:25:12;99701.28;;;46.43;14.30
69980;BME280;57318;56.232;43.944;2023-08-06T07:27:38;99690.72;;;45.58;15.21
69980;BME280;57318;56.232;43.944;2023-08-06T07:30:07;99695.25;;;45.75;15.30
69980;BME280;57318;56.232;43.944;2023-08-06T07:32:32;99690.88;;;46.59;13.87
69980;BME280;57318;56.232;43.944;2023-08-06T07:34:58;99704.25;;;47.58;12.53
69980;BME280;57318;56.232;43.944;2023-08-06T07:37:30;99701.78;;;48.47;11.70
69980;BME280;57318;56.232;43.944;2023-08-06T07:39:57;99698.72;;;49.25;11.77
69980;BME280;57318;56.232;43.944;2023-08-06T07:42:23;99688.56;;;49.47;12.01
69980;BME280;57318;56.232;43.944;2023-08-06T07:44:56;99690.41;;;49.59;11.75
69980;BME280;57318;56.232;43.944;2023-08-06T07:47:22;99694.25;;;50.05;11.70
69980;BME280;57318;56.232;43.944;2023-08-06T07:49:48;99701.03;;;50.30;11.45
69980;BME280;57318;56.232;43.944;2023-08-06T07:52:14;99688.53;;;50.01;11.00
69980;BME280;57318;56.232;43.944;2023-08-06T07:54:40;99694.97;;;49.98;11.06
69980;BME280;57318;56.232;43.944;2023-08-06T07:57:06;99692.72;;;50.11;11.45
69980;BME280;57318;56.232;43.944;2023-08-06T07:59:32;99692.19;;;50.32;11.77
69980;BME280;57318;56.232;43.944;2023-08-06T08:01:58;99694.22;;;50.69;11.73
69980;BME280;57318;56.232;43.944;2023-08-06T08:04:24;99690.53;;;50.68;11.65
69980;BME280;57318;56.232;43.944;2023-08-06T08:06:50;99696.38;;;51.31;10.78
69980;BME280;57318;56.232;43.944;2023-08-06T08:09:18;99693.41;;;51.13;11.09
69980;BME280;57318;56.232;43.944;2023-08-06T08:11:44;99685.13;;;50.94;10.81
69980;BME280;57318;56.232;43.944;2023-08-06T08:14:10;99683.19;;;50.57;11.33
69980;BME280;57318;56.232;43.944;2023-08-06T08:16:35;99675.84;;;48.61;12.23
69980;BME280;57318;56.232;43.944;2023-08-06T08:19:01;99670.59;;;48.83;12.72
69980;BME280;57318;56.232;43.944;2023-08-06T08:21:29;99675.13;;;48.87;12.00
69980;BME280;57318;56.232;43.944;2023-08-06T08:23:55;99670.53;;;47.97;12.69
69980;BME280;57318;56.232;43.944;2023-08-06T08:26:20;99667.22;;;46.16;14.13
69980;BME280;57318;56.232;43.944;2023-08-06T08:28:46;99662.25;;;45.72;14.54
69980;BME280;57318;56.232;43.944;2023-08-06T08:31:12;99658.41;;;45.89;14.38
69980;BME280;57318;56.232;43.944;2023-08-06T08:33:38;99662.44;;;46.61;13.77
69980;BME280;57318;56.232;43.944;2023-08-06T08:36:04;99654.84;;;47.09;13.94
69980;BME280;57318;56.232;43.944;2023-08-06T08:38:30;99661.78;;;48.02;12.72
69980;BME280;57318;56.232;43.944;2023-08-06T08:40:56;99660.81;;;49.00;12.59
69980;BME280;57318;56.232;43.944;2023-08-06T08:43:22;99666.50;;;49.83;11.57
69980;BME280;57318;56.232;43.944;2023-08-06T08:45:52;99660.69;;;50.71;10.41
69980;BME280;57318;56.232;43.944;2023-08-06T08:48:21;99667.69;;;50.88;10.95
69980;BME280;57318;56.232;43.944;2023-08-06T08:50:49;99673.22;;;51.18;10.88
69980;BME280;57318;56.232;43.944;2023-08-06T08:53:16;99655.66;;;48.59;12.01
69980;BME280;57318;56.232;43.944;2023-08-06T08:55:46;99655.44;;;46.26;13.74
69980;BME280;57318;56.232;43.944;2023-08-06T08:58:12;99641.09;;;43.67;15.94
69980;BME280;57318;56.232;43.944;2023-08-06T09:00:43;99645.22;;;41.66;18.23
69980;BME280;57318;56.232;43.944;2023-08-06T09:03:11;99645.69;;;39.89;19.96
69980;BME280;57318;56.232;43.944;2023-08-06T09:05:39;99634.44;;;39.02;20.74
69980;BME280;57318;56.232;43.944;2023-08-06T09:08:11;99633.03;;;38.25;21.18
69980;BME280;57318;56.232;43.944;2023-08-06T09:10:38;99627.03;;;37.36;21.94
69980;BME280;57318;56.232;43.944;2023-08-06T09:13:04;99624.22;;;36.93;23.45
69980;BME280;57318;56.232;43.944;2023-08-06T09:15:32;99633.28;;;38.89;22.08
69980;BME280;57318;56.232;43.944;2023-08-06T09:17:59;99630.50;;;41.26;19.24
69980;BME280;57318;56.232;43.944;2023-08-06T09:20:24;99635.16;;;43.69;17.04
69980;BME280;57318;56.232;43.944;2023-08-06T09:22:53;99636.28;;;45.75;14.95
69980;BME280;57318;56.232;43.944;2023-08-06T09:25:23;99646.00;;;47.43;13.61
69980;BME280;57318;56.232;43.944;2023-08-06T09:27:51;99647.25;;;48.82;12.58
69980;BME280;57318;56.232;43.944;2023-08-06T09:30:43;99651.63;;;50.17;11.61
69980;BME280;57318;56.232;43.944;2023-08-06T09:33:09;99646.88;;;51.14;10.81
69980;BME280;57318;56.232;43.944;2023-08-06T09:35:41;99650.28;;;51.34;10.50
69980;BME280;57318;56.232;43.944;2023-08-06T09:38:08;99643.38;;;52.20;9.53
69980;BME280;57318;56.232;43.944;2023-08-06T09:40:35;99639.44;;;52.75;9.13
69980;BME280;57318;56.232;43.944;2023-08-06T09:43:02;99637.44;;;52.90;8.38
69980;BME280;57318;56.232;43.944;2023-08-06T09:45:37;99633.41;;;53.05;8.46
69980;BME280;57318;56.232;43.944;2023-08-06T09:48:05;99629.75;;;53.01;8.40
69980;BME280;57318;56.232;43.944;2023-08-06T09:50:32;99630.13;;;53.10;8.37
69980;BME280;57318;56.232;43.944;2023-08-06T09:52:59;99641.88;;;53.30;8.47
69980;BME280;57318;56.232;43.944;2023-08-06T09:55:25;99636.06;;;53.73;8.13
69980;BME280;57318;56.232;43.944;2023-08-06T09:57:53;99637.63;;;53.96;8.01
69980;BME280;57318;56.232;43.944;2023-08-06T10:00:19;99623.84;;;53.80;8.35
69980;BME280;57318;56.232;43.944;2023-08-06T10:02:46;99625.84;;;53.90;7.67
69980;BME280;57318;56.232;43.944;2023-08-06T10:05:12;99627.75;;;54.15;7.74
69980;BME280;57318;56.232;43.944;2023-08-06T10:07:39;99613.88;;;54.21;7.31
69980;BME280;57318;56.232;43.944;2023-08-06T10:10:06;99626.88;;;54.22;7.51
69980;BME280;57318;56.232;43.944;2023-08-06T10:12:39;99611.94;;;54.10;7.25
69980;BME280;57318;56.232;43.944;2023-08-06T10:15:11;99608.44;;;53.78;7.28
69980;BME280;57318;56.232;43.944;2023-08-06T10:17:41;99606.16;;;53.40;7.84
69980;BME280;57318;56.232;43.944;2023-08-06T10:20:10;99599.72;;;52.42;8.14
69980;BME280;57318;56.232;43.944;2023-08-06T10:22:35;99602.81;;;51.94;8.41
69980;BME280;57318;56.232;43.944;2023-08-06T10:25:03;99598.31;;;51.75;8.16
69980;BME280;57318;56.232;43.944;2023-08-06T10:27:40;99599.88;;;51.61;8.46
69980;BME280;57318;56.232;43.944;2023-08-06T10:32:56;99594.78;;;52.00;8.33
69980;BME280;57318;56.232;43.944;2023-08-06T10:38:05;99587.91;;;51.23;9.63
69980;BME280;57318;56.232;43.944;2023-08-06T10:40:32;99590.06;;;50.85;9.09
69980;BME280;57318;56.232;43.944;2023-08-06T10:43:01;99586.19;;;51.08;9.55
69980;BME280;57318;56.232;43.944;2023-08-06T10:45:28;99578.06;;;51.69;8.39
69980;BME280;57318;56.232;43.944;2023-08-06T10:47:55;99583.19;;;51.42;8.16
69980;BME280;57318;56.232;43.944;2023-08-06T10:50:24;99577.66;;;51.64;8.57
69980;BME280;57318;56.232;43.944;2023-08-06T10:52:50;99578.13;;;51.84;8.67
69980;BME280;57318;56.232;43.944;2023-08-06T10:55:29;99576.19;;;52.20;8.04
69980;BME280;57318;56.232;43.944;2023-08-06T10:57:56;99569.34;;;52.54;8.09
69980;BME280;57318;56.232;43.944;2023-08-06T11:00:23;99570.97;;;52.58;7.70
69980;BME280;57318;56.232;43.944;2023-08-06T11:02:50;99568.53;;;52.71;8.06
69980;BME280;57318;56.232;43.944;2023-08-06T11:05:16;99567.72;;;52.92;7.73
69980;BME280;57318;56.232;43.944;2023-08-06T11:07:43;99562.41;;;53.16;7.40
69980;BME280;57318;56.232;43.944;2023-08-06T11:10:11;99564.81;;;53.21;7.18
69980;BME280;57318;56.232;43.944;2023-08-06T11:12:37;99564.47;;;52.61;7.33
69980;BME280;57318;56.232;43.944;2023-08-06T11:15:04;99565.28;;;52.55;7.96
69980;BME280;57318;56.232;43.944;2023-08-06T11:17:33;99559.19;;;52.42;7.98
69980;BME280;57318;56.232;43.944;2023-08-06T11:20:04;99559.22;;;52.60;8.13
69980;BME280;57318;56.232;43.944;2023-08-06T11:22:33;99558.41;;;52.66;8.05
69980;BME280;57318;56.232;43.944;2023-08-06T11:24:59;99560.81;;;52.97;7.58
69980;BME280;57318;56.232;43.944;2023-08-06T11:27:27;99561.22;;;52.92;7.23
69980;BME280;57318;56.232;43.944;2023-08-06T11:29:54;99553.94;;;52.83;7.49
69980;BME280;57318;56.232;43.944;2023-08-06T11:32:20;99545.41;;;53.01;7.53
69980;BME280;57318;56.232;43.944;2023-08-06T11:34:46;99546.25;;;52.62;7.43
69980;BME280;57318;56.232;43.944;2023-08-06T11:37:12;99540.94;;;52.18;8.00
69980;BME280;57318;56.232;43.944;2023-08-06T11:39:38;99545.31;;;51.83;8.29
69980;BME280;57318;56.232;43.944;2023-08-06T11:42:08;99544.88;;;51.63;8.13
69980;BME280;57318;56.232;43.944;2023-08-06T11:44:36;99553.19;;;51.30;8.64
69980;BME280;57318;56.232;43.944;2023-08-06T11:47:04;99542.34;;;51.50;8.84
69980;BME280;57318;56.232;43.944;2023-08-06T11:52:21;99544.19;;;51.10;8.95
69980;BME280;57318;56.232;43.944;2023-08-06T11:57:39;99535.06;;;49.90;9.38
69980;BME280;57318;56.232;43.944;2023-08-06T12:00:13;99533.66;;;49.42;10.32
69980;BME280;57318;56.232;43.944;2023-08-06T12:02:40;99524.59;;;49.26;10.16
69980;BME280;57318;56.232;43.944;2023-08-06T12:05:14;99527.25;;;49.45;9.73
69980;BME280;57318;56.232;43.944;2023-08-06T12:07:42;99531.81;;;49.88;9.49
69980;BME280;57318;56.232;43.944;2023-08-06T12:10:08;99525.03;;;49.96;9.41
69980;BME280;57318;56.232;43.944;2023-08-06T12:12:34;99526.69;;;49.63;10.20
69980;BME280;57318;56.232;43.944;2023-08-06T12:15:01;99534.59;;;49.50;10.46
69980;BME280;57318;56.232;43.944;2023-08-06T12:17:30;99527.13;;;49.35;10.92
69980;BME280;57318;56.232;43.944;2023-08-06T12:19:56;99529.03;;;49.27;10.81
69980;BME280;57318;56.232;43.944;2023-08-06T12:22:22;99516.81;;;49.49;10.26
69980;BME280;57318;56.232;43.944;2023-08-06T12:24:48;99513.63;;;49.21;10.75
69980;BME280;57318;56.232;43.944;2023-08-06T12:27:14;99518.50;;;49.24;10.48
69980;BME280;57318;56.232;43.944;2023-08-06T12:29:46;99515.66;;;49.20;10.59
69980;BME280;57318;56.232;43.944;2023-08-06T12:32:12;99505.22;;;49.24;11.00
69980;BME280;57318;56.232;43.944;2023-08-06T12:34:42;99506.06;;;49.28;11.13
69980;BME280;57318;56.232;43.944;2023-08-06T12:37:08;99499.59;;;49.24;10.86
69980;BME280;57318;56.232;43.944;2023-08-06T12:39:35;99505.25;;;49.28;11.35
69980;BME280;57318;56.232;43.944;2023-08-06T12:42:02;99498.88;;;49.04;11.52
69980;BME280;57318;56.232;43.944;2023-08-06T12:44:28;99497.16;;;48.96;11.18
69980;BME280;57318;56.232;43.944;2023-08-06T12:46:54;99499.53;;;48.94;11.78
69980;BME280;57318;56.232;43.944;2023-08-06T12:49:20;99491.94;;;48.71;11.76
69980;BME280;57318;56.232;43.944;2023-08-06T12:51:50;99491.72;;;48.34;12.05
69980;BME280;57318;56.232;43.944;2023-08-06T12:54:17;99491.53;;;48.23;12.24
69980;BME280;57318;56.232;43.944;2023-08-06T12:56:44;99494.28;;;47.96;12.26
69980;BME280;57318;56.232;43.944;2023-08-06T12:59:10;99483.72;;;47.70;12.75
69980;BME280;57318;56.232;43.944;2023-08-06T13:01:37;99486.31;;;47.79;12.69
69980;BME280;57318;56.232;43.944;2023-08-06T13:04:03;99486.38;;;47.63;12.57